createdAt,value
2023-03-02T00:00:45.751Z,94330.00
2023-03-02T00:03:12.164Z,94323.00
2023-03-02T00:05:38.577Z,94324.94
2023-03-02T00:08:05.001Z,94321.50
2023-03-02T00:10:31.481Z,94319.56
2023-03-02T00:12:57.910Z,94319.03
2023-03-02T00:15:24.317Z,94320.81
2023-03-02T00:17:50.776Z,94325.91
2023-03-02T00:20:17.198Z,94316.13
2023-03-02T00:22:43.628Z,94325.50
2023-03-02T00:25:10.076Z,94324.53
2023-03-02T00:27:36.471Z,94322.75
2023-03-02T00:30:02.887Z,94319.88
2023-03-02T00:32:29.366Z,94321.78
2023-03-02T00:34:55.837Z,94323.84
2023-03-02T00:37:22.229Z,94328.94
2023-03-02T00:39:48.652Z,94325.50
2023-03-02T00:42:15.085Z,94320.16
2023-03-02T00:44:41.492Z,94322.66
2023-03-02T00:47:07.911Z,94323.91
2023-03-02T00:49:34.319Z,94315.78
2023-03-02T00:52:00.711Z,94313.16
2023-03-02T00:54:27.120Z,94319.75
2023-03-02T00:56:53.542Z,94315.47
2023-03-02T00:59:20.004Z,94314.53
2023-03-02T01:01:46.422Z,94315.19
2023-03-02T01:04:12.913Z,94316.84
2023-03-02T01:06:39.305Z,94317.69
2023-03-02T01:09:05.730Z,94316.84
2023-03-02T01:11:32.140Z,94319.34
2023-03-02T01:13:58.585Z,94312.22
2023-03-02T01:16:25.063Z,94306.16
2023-03-02T01:24:19.595Z,94298.47
2023-03-02T01:26:46.037Z,94302.28
2023-03-02T01:29:12.510Z,94291.03
2023-03-02T01:31:38.953Z,94291.03
2023-03-02T01:34:05.459Z,94285.53
2023-03-02T01:36:32.074Z,94282.41
2023-03-02T01:38:58.685Z,94284.03
2023-03-02T01:41:25.114Z,94286.63
2023-03-02T01:43:51.544Z,94290.88
2023-03-02T01:46:17.998Z,94288.16
2023-03-02T01:48:44.406Z,94286.78
2023-03-02T01:51:10.811Z,94294.50
2023-03-02T01:53:37.247Z,94276.22
2023-03-02T01:56:03.672Z,94278.00
2023-03-02T01:58:30.086Z,94276.34
2023-03-02T02:00:56.568Z,94267.00
2023-03-02T02:03:23.007Z,94275.94
2023-03-02T02:05:49.433Z,94282.81
2023-03-02T02:08:15.874Z,94282.81
2023-03-02T02:10:42.263Z,94270.84
2023-03-02T02:13:08.691Z,94279.63
2023-03-02T02:15:35.136Z,94274.16
2023-03-02T02:18:01.578Z,94280.47
2023-03-02T02:20:28.027Z,94283.91
2023-03-02T02:22:54.478Z,94283.75
2023-03-02T02:25:20.880Z,94281.56
2023-03-02T02:27:47.362Z,94283.34
2023-03-02T02:30:13.821Z,94276.34
2023-03-02T02:32:40.275Z,94274.72
2023-03-02T02:35:06.737Z,94275.53
2023-03-02T02:37:33.178Z,94276.19
2023-03-02T02:39:59.585Z,94276.59
2023-03-02T02:42:25.991Z,94280.03
2023-03-02T02:44:52.417Z,94277.56
2023-03-02T02:47:18.859Z,94288.81
2023-03-02T02:49:45.269Z,94281.97
2023-03-02T02:52:11.648Z,94279.78
2023-03-02T02:54:38.096Z,94282.53
2023-03-02T02:57:04.560Z,94278.97
2023-03-02T02:59:31.003Z,94280.75
2023-03-02T03:01:57.491Z,94278.00
2023-03-02T03:04:24.012Z,94274.56
2023-03-02T03:06:50.517Z,94275.41
2023-03-02T03:09:16.960Z,94277.84
2023-03-02T03:11:43.384Z,94272.63
2023-03-02T03:14:09.837Z,94275.53
2023-03-02T03:16:36.436Z,94273.88
2023-03-02T03:19:02.894Z,94280.03
2023-03-02T03:21:29.328Z,94281.00
2023-03-02T03:23:55.742Z,94289.78
2023-03-02T03:26:22.156Z,94302.84
2023-03-02T03:28:48.575Z,94296.38
2023-03-02T03:31:14.979Z,94303.25
2023-03-02T03:33:41.416Z,94299.81
2023-03-02T03:36:07.812Z,94292.81
2023-03-02T03:38:34.211Z,94292.13
2023-03-02T03:41:00.855Z,94299.94
2023-03-02T03:43:27.283Z,94301.44
2023-03-02T03:45:53.758Z,94294.44
2023-03-02T03:48:20.217Z,94291.81
2023-03-02T03:50:46.668Z,94292.66
2023-03-02T03:53:13.070Z,94289.91
2023-03-02T03:55:39.518Z,94283.88
2023-03-02T03:58:05.934Z,94284.72
2023-03-02T04:00:32.335Z,94285.53
2023-03-02T04:02:58.807Z,94297.88
2023-03-02T04:05:25.355Z,94290.88
2023-03-02T04:07:51.767Z,94297.03
2023-03-02T04:10:18.176Z,94301.31
2023-03-02T04:12:45.003Z,94303.78
2023-03-02T04:15:11.425Z,94302.56
2023-03-02T04:17:37.846Z,94302.00
2023-03-02T04:20:04.283Z,94302.28
2023-03-02T04:22:30.708Z,94306.09
2023-03-02T04:24:57.138Z,94315.16
2023-03-02T04:27:23.623Z,94310.16
2023-03-02T04:29:50.073Z,94315.91
2023-03-02T04:32:16.517Z,94323.75
2023-03-02T04:34:42.944Z,94314.13
2023-03-02T04:37:09.364Z,94317.31
2023-03-02T04:39:35.872Z,94321.00
2023-03-02T04:42:02.293Z,94317.69
2023-03-02T04:44:28.719Z,94321.97
2023-03-02T04:46:55.196Z,94324.56
2023-03-02T04:49:21.655Z,94323.50
2023-03-02T04:51:48.100Z,94327.31
2023-03-02T04:54:14.506Z,94329.78
2023-03-02T04:56:40.882Z,94327.19
2023-03-02T04:59:07.279Z,94323.31
2023-03-02T05:01:33.699Z,94328.00
2023-03-02T05:04:02.733Z,94324.97
2023-03-02T05:06:29.424Z,94330.50
2023-03-02T05:08:55.830Z,94324.41
2023-03-02T05:11:22.556Z,94318.22
2023-03-02T05:13:49.071Z,94326.47
2023-03-02T05:16:15.540Z,94324.66
2023-03-02T05:18:42.090Z,94328.09
2023-03-02T05:21:08.564Z,94318.22
2023-03-02T05:23:35.022Z,94321.25
2023-03-02T05:26:01.451Z,94322.78
2023-03-02T05:28:27.935Z,94315.50
2023-03-02T05:30:56.885Z,94321.53
2023-03-02T05:33:23.359Z,94329.06
2023-03-02T05:35:49.890Z,94332.16
2023-03-02T05:38:16.328Z,94330.50
2023-03-02T05:40:42.752Z,94340.09
2023-03-02T05:43:09.188Z,94340.50
2023-03-02T05:45:35.665Z,94349.94
2023-03-02T05:48:02.072Z,94348.97
2023-03-02T05:50:28.542Z,94357.50
2023-03-02T05:52:54.940Z,94365.22
2023-03-02T05:55:21.421Z,94370.25
2023-03-02T05:57:47.858Z,94378.78
2023-03-02T06:00:14.267Z,94381.41
2023-03-02T06:02:40.692Z,94376.91
2023-03-02T06:05:07.140Z,94376.91
2023-03-02T06:07:33.537Z,94380.19
2023-03-02T06:09:59.961Z,94373.88
2023-03-02T06:12:26.357Z,94381.59
2023-03-02T06:14:52.802Z,94381.59
2023-03-02T06:17:19.223Z,94386.66
2023-03-02T06:19:45.803Z,94385.69
2023-03-02T06:22:12.250Z,94384.75
2023-03-02T06:24:38.710Z,94379.41
2023-03-02T06:27:05.401Z,94382.00
2023-03-02T06:29:31.831Z,94383.91
2023-03-02T06:31:58.422Z,94387.47
2023-03-02T06:34:24.948Z,94390.25
2023-03-02T06:36:51.382Z,94391.03
2023-03-02T06:39:17.777Z,94389.25
2023-03-02T06:41:44.219Z,94389.97
2023-03-02T06:44:10.638Z,94391.50
2023-03-02T06:46:37.103Z,94395.59
2023-03-02T06:49:03.493Z,94402.59
2023-03-02T06:51:29.892Z,94397.38
2023-03-02T06:53:56.292Z,94397.25
2023-03-02T06:56:22.708Z,94401.38
2023-03-02T06:58:49.307Z,94401.84
2023-03-02T07:01:16.707Z,94408.44
2023-03-02T07:03:43.161Z,94403.09
2023-03-02T07:06:09.577Z,94399.38
2023-03-02T07:08:35.980Z,94406.25
2023-03-02T07:11:02.412Z,94406.25
2023-03-02T07:13:28.830Z,94410.50
2023-03-02T07:15:55.274Z,94410.22
2023-03-02T07:18:21.690Z,94414.38
2023-03-02T07:20:48.176Z,94424.53
2023-03-02T07:23:14.647Z,94425.94
2023-03-02T07:25:41.074Z,94426.38
2023-03-02T07:28:07.507Z,94430.34
2023-03-02T07:30:33.954Z,94436.94
2023-03-02T07:33:00.389Z,94436.56
2023-03-02T07:35:26.860Z,94430.97
2023-03-02T07:37:53.283Z,94426.00
2023-03-02T07:40:19.704Z,94416.25
2023-03-02T07:42:46.123Z,94415.03
2023-03-02T07:45:13.264Z,94422.72
2023-03-02T07:47:39.715Z,94430.13
2023-03-02T07:50:06.114Z,94433.03
2023-03-02T07:52:32.518Z,94437.72
2023-03-02T07:54:58.962Z,94444.31
2023-03-02T07:57:25.377Z,94443.38
2023-03-02T07:59:51.781Z,94446.69
2023-03-02T08:02:18.187Z,94444.75
2023-03-02T08:04:44.615Z,94441.72
2023-03-02T08:07:11.038Z,94441.75
2023-03-02T08:09:37.468Z,94436.53
2023-03-02T08:12:03.926Z,94430.47
2023-03-02T08:14:30.362Z,94444.66
2023-03-02T08:16:56.777Z,94460.31
2023-03-02T08:19:23.209Z,94461.31
2023-03-02T08:21:49.632Z,94457.44
2023-03-02T08:24:16.095Z,94457.59
2023-03-02T08:26:42.484Z,94466.50
2023-03-02T08:29:08.891Z,94458.94
2023-03-02T08:31:35.806Z,94459.75
2023-03-02T08:34:02.370Z,94461.00
2023-03-02T08:36:28.778Z,94460.72
2023-03-02T08:38:55.191Z,94468.28
2023-03-02T08:41:21.589Z,94468.00
2023-03-02T08:43:47.973Z,94463.31
2023-03-02T08:46:14.513Z,94460.81
2023-03-02T08:48:40.984Z,94461.78
2023-03-02T08:51:07.448Z,94463.38
2023-03-02T08:53:33.862Z,94463.69
2023-03-02T08:56:00.264Z,94462.13
2023-03-02T08:58:26.708Z,94466.78
2023-03-02T09:00:53.127Z,94461.94
2023-03-02T09:03:19.545Z,94473.94
2023-03-02T09:05:46.003Z,94476.25
2023-03-02T09:08:12.451Z,94474.16
2023-03-02T09:10:38.881Z,94477.59
2023-03-02T09:13:06.840Z,94482.47
2023-03-02T09:15:34.807Z,94487.44
2023-03-02T09:18:01.248Z,94483.81
2023-03-02T09:20:27.692Z,94483.22
2023-03-02T09:22:54.138Z,94476.72
2023-03-02T09:25:20.528Z,94481.06
2023-03-02T09:27:46.913Z,94482.97
2023-03-02T09:30:13.400Z,94484.19
2023-03-02T09:32:40.222Z,94491.72
2023-03-02T09:35:06.985Z,94498.09
2023-03-02T09:37:33.455Z,94496.97
2023-03-02T09:39:59.936Z,94493.91
2023-03-02T09:42:38.142Z,94494.47
2023-03-02T09:45:09.834Z,94499.63
2023-03-02T09:47:36.370Z,94498.44
2023-03-02T09:50:02.784Z,94503.75
2023-03-02T09:52:29.224Z,94493.25
2023-03-02T09:54:55.631Z,94500.00
2023-03-02T09:57:22.090Z,94495.00
2023-03-02T09:59:48.511Z,94496.72
2023-03-02T10:02:14.929Z,94498.16
2023-03-02T10:04:41.409Z,94494.25
2023-03-02T10:07:07.846Z,94503.00
2023-03-02T10:09:34.259Z,94496.50
2023-03-02T10:12:00.665Z,94496.69
2023-03-02T10:14:27.098Z,94503.91
2023-03-02T10:16:53.523Z,94503.75
2023-03-02T10:19:19.929Z,94509.22
2023-03-02T10:21:46.345Z,94508.63
2023-03-02T10:24:12.771Z,94511.47
2023-03-02T10:26:39.288Z,94518.22
2023-03-02T10:29:05.671Z,94513.50
2023-03-02T10:31:32.056Z,94507.78
2023-03-02T10:33:58.491Z,94510.78
2023-03-02T10:36:24.931Z,94501.94
2023-03-02T10:38:51.384Z,94507.56
2023-03-02T10:41:17.799Z,94517.91
2023-03-02T10:43:44.317Z,94517.44
2023-03-02T10:46:10.788Z,94520.75
2023-03-02T10:48:40.980Z,94517.81
2023-03-02T10:51:07.603Z,94516.38
2023-03-02T10:53:34.035Z,94522.31
2023-03-02T10:56:00.491Z,94520.88
2023-03-02T10:58:27.032Z,94520.19
2023-03-02T11:00:53.436Z,94527.78
2023-03-02T11:03:19.871Z,94519.72
2023-03-02T11:05:46.295Z,94521.22
2023-03-02T11:08:12.706Z,94513.41
2023-03-02T11:10:39.150Z,94525.28
2023-03-02T11:13:05.672Z,94521.41
2023-03-02T11:15:32.150Z,94511.09
2023-03-02T11:17:58.695Z,94521.06
2023-03-02T11:20:25.118Z,94524.75
2023-03-02T11:22:51.525Z,94522.47
2023-03-02T11:25:17.926Z,94521.78
2023-03-02T11:27:44.366Z,94526.13
2023-03-02T11:30:10.792Z,94525.31
2023-03-02T11:32:37.363Z,94521.78
2023-03-02T11:35:03.812Z,94525.56
2023-03-02T11:37:30.224Z,94526.75
2023-03-02T11:39:56.709Z,94527.25
2023-03-02T11:42:23.165Z,94516.94
2023-03-02T11:44:49.586Z,94523.00
2023-03-02T11:47:16.066Z,94522.34
2023-03-02T11:49:42.553Z,94518.91
2023-03-02T11:52:09.024Z,94513.69
2023-03-02T11:54:35.498Z,94512.72
2023-03-02T11:57:01.944Z,94510.94
2023-03-02T11:59:28.909Z,94510.13
2023-03-02T12:01:55.477Z,94507.34
2023-03-02T12:04:22.052Z,94505.41
2023-03-02T12:06:48.485Z,94507.34
2023-03-02T12:09:14.975Z,94510.31
2023-03-02T12:11:41.426Z,94498.47
2023-03-02T12:14:07.839Z,94494.88
2023-03-02T12:16:34.699Z,94494.72
2023-03-02T12:19:01.316Z,94487.13
2023-03-02T12:21:27.785Z,94492.06
2023-03-02T12:23:54.225Z,94488.31
2023-03-02T12:26:20.643Z,94486.81
2023-03-02T12:28:47.119Z,94476.44
2023-03-02T12:31:13.728Z,94478.44
2023-03-02T12:33:40.182Z,94478.06
2023-03-02T12:36:06.689Z,94478.91
2023-03-02T12:38:33.097Z,94477.56
2023-03-02T12:40:59.576Z,94479.97
2023-03-02T12:43:26.046Z,94477.81
2023-03-02T12:45:52.548Z,94473.50
2023-03-02T12:48:19.072Z,94473.16
2023-03-02T12:50:45.837Z,94464.44
2023-03-02T12:53:12.321Z,94461.91
2023-03-02T12:55:38.819Z,94461.22
2023-03-02T12:58:06.330Z,94463.34
2023-03-02T13:00:33.845Z,94460.38
2023-03-02T13:03:00.296Z,94456.56
2023-03-02T13:05:26.729Z,94454.38
2023-03-02T13:07:53.170Z,94445.13
2023-03-02T13:10:19.717Z,94441.91
2023-03-02T13:12:46.254Z,94443.28
2023-03-02T13:15:12.675Z,94438.22
2023-03-02T13:17:39.071Z,94441.94
2023-03-02T13:20:05.531Z,94445.03
2023-03-02T13:22:32.011Z,94445.34
2023-03-02T13:24:58.473Z,94436.03
2023-03-02T13:27:25.001Z,94436.72
2023-03-02T13:29:51.470Z,94438.03
2023-03-02T13:32:17.944Z,94435.59
2023-03-02T13:34:44.430Z,94430.56
2023-03-02T13:37:12.164Z,94432.03
2023-03-02T13:39:38.669Z,94437.44
2023-03-02T13:42:05.076Z,94429.91
2023-03-02T13:44:31.474Z,94430.28
2023-03-02T13:46:57.849Z,94431.47
2023-03-02T13:49:24.306Z,94434.22
2023-03-02T13:51:50.713Z,94432.91
2023-03-02T13:54:17.188Z,94429.31
2023-03-02T13:56:43.619Z,94429.31
2023-03-02T13:59:10.008Z,94429.00
2023-03-02T14:01:36.543Z,94421.31
2023-03-02T14:04:03.019Z,94424.81
2023-03-02T14:06:29.477Z,94436.53
2023-03-02T14:08:55.884Z,94427.00
2023-03-02T14:11:22.284Z,94433.09
2023-03-02T14:13:48.703Z,94442.28
2023-03-02T14:16:15.161Z,94441.13
2023-03-02T14:18:41.603Z,94446.25
2023-03-02T14:21:08.053Z,94457.78
2023-03-02T14:23:34.502Z,94449.91
2023-03-02T14:26:01.059Z,94444.03
2023-03-02T14:28:27.489Z,94448.63
2023-03-02T14:30:53.927Z,94445.34
2023-03-02T14:33:20.426Z,94446.31
2023-03-02T14:35:46.886Z,94437.44
2023-03-02T14:38:13.312Z,94439.56
2023-03-02T14:40:39.732Z,94436.44
2023-03-02T14:43:06.210Z,94437.28
2023-03-02T14:45:32.618Z,94437.28
2023-03-02T14:47:59.009Z,94437.13
2023-03-02T14:50:25.530Z,94430.72
2023-03-02T14:52:51.949Z,94427.59
2023-03-02T14:55:18.416Z,94437.13
2023-03-02T14:57:44.858Z,94430.69
2023-03-02T15:00:11.315Z,94428.41
2023-03-02T15:02:37.816Z,94426.22
2023-03-02T15:05:04.308Z,94419.50
2023-03-02T15:07:30.733Z,94415.22
2023-03-02T15:09:57.186Z,94409.78
2023-03-02T15:12:23.647Z,94415.66
2023-03-02T15:14:50.089Z,94409.56
2023-03-02T15:17:16.513Z,94416.16
2023-03-02T15:19:42.911Z,94410.53
2023-03-02T15:22:09.317Z,94419.41
2023-03-02T15:24:35.737Z,94416.94
2023-03-02T15:27:02.177Z,94419.75
2023-03-02T15:29:28.610Z,94422.53
2023-03-02T15:31:55.219Z,94424.47
2023-03-02T15:34:21.774Z,94424.81
2023-03-02T15:36:48.198Z,94426.75
2023-03-02T15:39:14.692Z,94426.25
2023-03-02T15:41:41.209Z,94424.75
2023-03-02T15:44:07.638Z,94431.63
2023-03-02T15:46:34.151Z,94429.81
2023-03-02T15:49:00.582Z,94435.69
2023-03-02T15:51:26.994Z,94436.03
2023-03-02T15:53:53.417Z,94439.44
2023-03-02T15:56:19.858Z,94438.13
2023-03-02T15:58:46.360Z,94433.81
2023-03-02T16:01:12.796Z,94437.69
2023-03-02T16:03:39.221Z,94435.69
2023-03-02T16:06:05.643Z,94439.13
2023-03-02T16:08:32.056Z,94435.44
2023-03-02T16:10:58.597Z,94437.41
2023-03-02T16:13:25.094Z,94438.00
2023-03-02T16:15:51.503Z,94439.44
2023-03-02T16:18:17.921Z,94445.34
2023-03-02T16:20:44.310Z,94446.59
2023-03-02T16:23:10.799Z,94447.22
2023-03-02T16:25:37.201Z,94453.06
2023-03-02T16:28:03.645Z,94460.56
2023-03-02T16:30:30.072Z,94463.16
2023-03-02T16:32:56.484Z,94471.47
2023-03-02T16:35:22.896Z,94471.06
2023-03-02T16:37:49.386Z,94461.19
2023-03-02T16:40:15.808Z,94468.13
2023-03-02T16:42:42.240Z,94475.09
2023-03-02T16:45:08.660Z,94476.72
2023-03-02T16:47:35.086Z,94477.84
2023-03-02T16:50:01.510Z,94479.84
2023-03-02T16:52:27.936Z,94484.00
2023-03-02T16:54:54.809Z,94485.03
2023-03-02T16:57:21.328Z,94485.78
2023-03-02T16:59:47.848Z,94483.88
2023-03-02T17:02:14.267Z,94484.44
2023-03-02T17:04:40.770Z,94490.41
2023-03-02T17:07:07.245Z,94496.06
2023-03-02T17:09:33.662Z,94506.97
2023-03-02T17:12:00.088Z,94507.28
2023-03-02T17:14:26.536Z,94509.75
2023-03-02T17:16:52.954Z,94513.25
2023-03-02T17:19:19.389Z,94509.78
2023-03-02T17:21:45.796Z,94517.66
2023-03-02T17:24:12.198Z,94514.38
2023-03-02T17:26:38.638Z,94517.00
2023-03-02T17:29:05.043Z,94519.66
2023-03-02T17:31:31.508Z,94525.44
2023-03-02T17:33:57.929Z,94529.41
2023-03-02T17:36:24.380Z,94532.56
2023-03-02T17:38:50.787Z,94535.44
2023-03-02T17:41:17.199Z,94543.56
2023-03-02T17:43:43.618Z,94542.03
2023-03-02T17:46:10.103Z,94544.25
2023-03-02T17:48:36.570Z,94553.88
2023-03-02T17:51:03.099Z,94549.88
2023-03-02T17:53:29.486Z,94550.56
2023-03-02T17:55:55.930Z,94555.06
2023-03-02T17:58:22.322Z,94562.63
2023-03-02T18:00:48.725Z,94568.22
2023-03-02T18:03:15.411Z,94566.84
2023-03-02T18:05:41.830Z,94567.81
2023-03-02T18:08:08.266Z,94578.66
2023-03-02T18:10:34.688Z,94576.19
2023-03-02T18:13:01.095Z,94577.97
2023-03-02T18:15:27.496Z,94578.66
2023-03-02T18:17:53.903Z,94581.69
2023-03-02T18:20:20.495Z,94585.13
2023-03-02T18:22:46.884Z,94593.19
2023-03-02T18:25:13.282Z,94594.31
2023-03-02T18:27:39.720Z,94600.59
2023-03-02T18:30:06.134Z,94596.50
2023-03-02T18:32:32.555Z,94596.34
2023-03-02T18:34:59.004Z,94601.03
2023-03-02T18:37:25.453Z,94602.53
2023-03-02T18:39:51.868Z,94596.09
2023-03-02T18:42:18.266Z,94600.72
2023-03-02T18:44:44.684Z,94596.22
2023-03-02T18:47:11.096Z,94598.56
2023-03-02T18:49:37.496Z,94595.66
2023-03-02T18:52:03.914Z,94595.91
2023-03-02T18:54:30.328Z,94604.56
2023-03-02T18:56:56.730Z,94602.34
2023-03-02T18:59:23.207Z,94602.22
2023-03-02T19:01:49.690Z,94593.28
2023-03-02T19:04:16.121Z,94605.78
2023-03-02T19:06:42.512Z,94604.13
2023-03-02T19:09:08.927Z,94603.56
2023-03-02T19:11:35.354Z,94597.53
2023-03-02T19:14:01.738Z,94598.47
2023-03-02T19:16:28.229Z,94601.38
2023-03-02T19:18:54.618Z,94601.78
2023-03-02T19:21:21.170Z,94600.38
2023-03-02T19:23:47.585Z,94598.03
2023-03-02T19:26:13.980Z,94604.22
2023-03-02T19:28:40.447Z,94607.66
2023-03-02T19:31:07.116Z,94608.72
2023-03-02T19:33:34.153Z,94602.13
2023-03-02T19:36:00.659Z,94604.03
2023-03-02T19:38:27.146Z,94607.47
2023-03-02T19:40:53.595Z,94612.97
2023-03-02T19:43:20.059Z,94616.28
2023-03-02T19:45:46.561Z,94618.63
2023-03-02T19:48:13.005Z,94623.19
2023-03-02T19:50:39.437Z,94621.69
2023-03-02T19:53:05.845Z,94623.72
2023-03-02T19:55:32.249Z,94634.34
2023-03-02T19:57:58.652Z,94631.31
2023-03-02T20:00:25.114Z,94637.28
2023-03-02T20:02:51.514Z,94633.72
2023-03-02T20:05:17.959Z,94640.28
2023-03-02T20:07:44.475Z,94644.97
2023-03-02T20:10:11.022Z,94637.38
2023-03-02T20:12:37.535Z,94636.28
2023-03-02T20:15:04.127Z,94641.25
2023-03-02T20:17:30.705Z,94646.00
2023-03-02T20:19:58.323Z,94641.84
2023-03-02T20:22:24.796Z,94641.34
2023-03-02T20:24:51.254Z,94646.56
2023-03-02T20:27:17.746Z,94649.69
2023-03-02T20:29:44.247Z,94658.66
2023-03-02T20:32:10.690Z,94654.28
2023-03-02T20:34:37.129Z,94651.06
2023-03-02T20:37:03.520Z,94656.06
2023-03-02T20:39:30.000Z,94653.81
2023-03-02T20:41:56.547Z,94657.44
2023-03-02T20:44:23.072Z,94659.72
2023-03-02T20:46:49.525Z,94660.66
2023-03-02T20:49:15.936Z,94661.66
2023-03-02T20:51:42.455Z,94661.31
2023-03-02T20:54:08.896Z,94664.66
2023-03-02T20:56:35.340Z,94666.06
2023-03-02T20:59:02.006Z,94666.94
2023-03-02T21:01:28.602Z,94659.22
2023-03-02T21:03:55.110Z,94673.22
2023-03-02T21:06:21.626Z,94672.06
2023-03-02T21:08:48.388Z,94670.75
2023-03-02T21:11:14.800Z,94674.97
2023-03-02T21:13:41.246Z,94674.63
2023-03-02T21:16:07.744Z,94677.00
2023-03-02T21:18:34.153Z,94672.59
2023-03-02T21:21:00.603Z,94672.72
2023-03-02T21:23:27.017Z,94676.66
2023-03-02T21:25:53.459Z,94676.88
2023-03-02T21:28:19.866Z,94674.38
2023-03-02T21:30:46.528Z,94687.03
2023-03-02T21:33:13.017Z,94680.78
2023-03-02T21:35:39.434Z,94677.78
2023-03-02T21:38:05.971Z,94674.94
2023-03-02T21:40:32.434Z,94673.03
2023-03-02T21:42:58.874Z,94677.25
2023-03-02T21:45:25.338Z,94665.91
2023-03-02T21:47:52.495Z,94670.00
2023-03-02T21:50:18.891Z,94669.56
2023-03-02T21:52:45.336Z,94668.56
2023-03-02T21:55:11.768Z,94671.13
2023-03-02T21:57:38.305Z,94669.84
2023-03-02T22:00:04.732Z,94665.34
2023-03-02T22:02:31.153Z,94666.06
2023-03-02T22:04:57.568Z,94664.38
2023-03-02T22:07:24.052Z,94672.91
2023-03-02T22:09:50.614Z,94664.41
2023-03-02T22:12:17.100Z,94665.72
2023-03-02T22:14:43.649Z,94663.22
2023-03-02T22:17:10.081Z,94664.88
2023-03-02T22:19:37.205Z,94666.91
2023-03-02T22:22:03.623Z,94670.09
2023-03-02T22:24:30.030Z,94670.44
2023-03-02T22:26:56.495Z,94673.16
2023-03-02T22:29:23.010Z,94670.66
2023-03-02T22:31:49.473Z,94667.97
2023-03-02T22:34:15.907Z,94670.09
2023-03-02T22:36:42.322Z,94670.34
2023-03-02T22:39:08.763Z,94656.03
2023-03-02T22:41:35.232Z,94660.63
2023-03-02T22:44:01.648Z,94655.78
2023-03-02T22:46:28.106Z,94654.00
2023-03-02T22:48:54.538Z,94662.19
2023-03-02T22:51:20.928Z,94646.66
2023-03-02T22:53:47.356Z,94648.31
2023-03-02T22:56:13.770Z,94651.41
2023-03-02T22:58:40.184Z,94652.59
2023-03-02T23:01:06.667Z,94642.97
2023-03-02T23:03:33.117Z,94650.78
2023-03-02T23:05:59.547Z,94648.81
2023-03-02T23:08:26.168Z,94647.88
2023-03-02T23:10:52.603Z,94656.84
2023-03-02T23:13:19.015Z,94656.50
2023-03-02T23:15:45.448Z,94644.31
2023-03-02T23:18:11.868Z,94652.81
2023-03-02T23:20:38.288Z,94656.59
2023-03-02T23:23:04.757Z,94648.44
2023-03-02T23:25:31.182Z,94643.00
2023-03-02T23:27:57.654Z,94645.00
2023-03-02T23:30:24.058Z,94645.38
2023-03-02T23:32:50.524Z,94647.59
2023-03-02T23:35:17.003Z,94648.91
2023-03-02T23:37:43.394Z,94645.00
2023-03-02T23:40:09.848Z,94641.44
2023-03-02T23:42:36.319Z,94652.22
2023-03-02T23:45:02.704Z,94646.88
2023-03-02T23:47:29.188Z,94653.03
2023-03-02T23:49:55.637Z,94642.03
2023-03-02T23:52:22.056Z,94654.09
2023-03-02T23:54:48.473Z,94642.00
2023-03-02T23:57:14.923Z,94640.03
2023-03-02T23:59:41.348Z,94633.75
